<?xml version="1.0" encoding="UTF-8" standalone="no" ?>
<gpx xmlns="http://www.topografix.com/GPX/1/1" xmlns:xsi="http://www.w3.org/2001/XMLSchema-instance" xsi:schemaLocation="http://www.topografix.com/GPX/1/1 http://www.topografix.com/GPX/1/1/gpx.xsd" version="1.1" creator="VisuGPX - https://www.visugpx.com">
  <metadata>
    <name>Croix de Noailles 10k</name>
  </metadata>
  <trk>
    <name><![CDATA[12063868-Croix de Noailles 10k]]></name>
    <trkseg>
      <trkpt lat="48.9396" lon="2.09684">
        <ele>66</ele>
        <time>2020-09-18T22:45:13Z</time>
      </trkpt>
      <trkpt lat="48.93986" lon="2.09709">
        <ele>66</ele>
      </trkpt>
      <trkpt lat="48.94464" lon="2.10447">
        <ele>70</ele>
        <time>2020-09-18T23:01:07Z</time>
      </trkpt>
      <trkpt lat="48.94375" lon="2.11021">
        <ele>71</ele>
      </trkpt>
      <trkpt lat="48.94356" lon="2.11951">
        <ele>60.6</ele>
      </trkpt>
      <trkpt lat="48.94588" lon="2.11989">
        <ele>64</ele>
        <time>2020-09-18T23:28:36Z</time>
      </trkpt>
      <trkpt lat="48.94623" lon="2.1205">
        <ele>64</ele>
        <time>2020-09-18T23:29:47Z</time>
      </trkpt>
      <trkpt lat="48.94618" lon="2.12283">
        <ele>60</ele>
        <time>2020-09-18T23:33:11Z</time>
      </trkpt>
      <trkpt lat="48.94592" lon="2.12354">
        <ele>59</ele>
        <time>2020-09-18T23:34:22Z</time>
      </trkpt>
      <trkpt lat="48.94514" lon="2.12433">
        <ele>60</ele>
        <time>2020-09-18T23:36:27Z</time>
      </trkpt>
      <trkpt lat="48.94608" lon="2.12512">
        <ele>62</ele>
        <time>2020-09-18T23:38:51Z</time>
      </trkpt>
      <trkpt lat="48.94779" lon="2.1256">
        <ele>63</ele>
        <time>2020-09-18T23:42:43Z</time>
      </trkpt>
      <trkpt lat="48.95121" lon="2.12652">
        <ele>56</ele>
        <time>2020-09-18T23:50:26Z</time>
      </trkpt>
      <trkpt lat="48.95166" lon="2.12297">
        <ele>55</ele>
        <time>2020-09-18T23:55:43Z</time>
      </trkpt>
      <trkpt lat="48.95577" lon="2.12216">
        <ele>51</ele>
        <time>2020-09-19T00:04:56Z</time>
      </trkpt>
      <trkpt lat="48.95548" lon="2.11914">
        <ele>55</ele>
        <time>2020-09-19T00:09:24Z</time>
      </trkpt>
      <trkpt lat="48.95215" lon="2.11841">
        <ele>62</ele>
        <time>2020-09-19T00:16:52Z</time>
      </trkpt>
      <trkpt lat="48.95245" lon="2.11604">
        <ele>65</ele>
        <time>2020-09-19T00:20:24Z</time>
      </trkpt>
      <trkpt lat="48.95547" lon="2.11678">
        <ele>54</ele>
        <time>2020-09-19T00:27:12Z</time>
      </trkpt>
      <trkpt lat="48.95827" lon="2.1155">
        <ele>50</ele>
        <time>2020-09-19T00:33:42Z</time>
      </trkpt>
      <trkpt lat="48.95557" lon="2.11259">
        <ele>57</ele>
        <time>2020-09-19T00:41:04Z</time>
      </trkpt>
      <trkpt lat="48.95647" lon="2.10799">
        <ele>51</ele>
        <time>2020-09-19T00:48:04Z</time>
      </trkpt>
      <trkpt lat="48.95176" lon="2.10853">
        <ele>60</ele>
        <time>2020-09-19T00:58:35Z</time>
      </trkpt>
      <trkpt lat="48.95148" lon="2.10692">
        <ele>58</ele>
        <time>2020-09-19T01:01:01Z</time>
      </trkpt>
      <trkpt lat="48.9517" lon="2.10674">
        <ele>57</ele>
      </trkpt>
      <trkpt lat="48.95185" lon="2.10631">
        <ele>55</ele>
        <time>2020-09-19T01:02:13Z</time>
      </trkpt>
      <trkpt lat="48.95136" lon="2.10324">
        <ele>55.8</ele>
      </trkpt>
      <trkpt lat="48.9515" lon="2.10271">
        <ele>56</ele>
      </trkpt>
      <trkpt lat="48.95156" lon="2.10123">
        <ele>60</ele>
        <time>2020-09-19T01:09:47Z</time>
      </trkpt>
      <trkpt lat="48.95207" lon="2.09942">
        <ele>54</ele>
        <time>2020-09-19T01:12:39Z</time>
      </trkpt>
      <trkpt lat="48.95189" lon="2.09834">
        <ele>54.3</ele>
      </trkpt>
      <trkpt lat="48.95227" lon="2.0974">
        <ele>50</ele>
        <time>2020-09-19T01:15:50Z</time>
      </trkpt>
      <trkpt lat="48.95259" lon="2.09643">
        <ele>47</ele>
        <time>2020-09-19T01:17:25Z</time>
      </trkpt>
      <trkpt lat="48.9529" lon="2.09549">
        <ele>48</ele>
        <time>2020-09-19T01:18:57Z</time>
      </trkpt>
      <trkpt lat="48.95297" lon="2.09521">
        <ele>48</ele>
        <time>2020-09-19T01:19:24Z</time>
      </trkpt>
      <trkpt lat="48.95" lon="2.10001">
        <ele>60</ele>
        <time>2020-09-19T01:29:02Z</time>
      </trkpt>
      <trkpt lat="48.94828" lon="2.10542">
        <ele>61</ele>
        <time>2020-09-19T01:37:48Z</time>
      </trkpt>
      <trkpt lat="48.94607" lon="2.10481">
        <ele>64</ele>
        <time>2020-09-19T01:42:48Z</time>
      </trkpt>
      <trkpt lat="48.94625" lon="2.09881">
        <ele>59</ele>
        <time>2020-09-19T01:51:34Z</time>
      </trkpt>
      <trkpt lat="48.94558" lon="2.09853">
        <ele>59</ele>
        <time>2020-09-19T01:53:07Z</time>
      </trkpt>
      <trkpt lat="48.93982" lon="2.09669">
        <ele>65.6</ele>
      </trkpt>
    </trkseg>
  </trk>
</gpx>